sensor_id;sensor_type;location;lat;lon;timestamp;pressure;altitude;pressure_sealevel;temperature;humidity
60725;BME280;59881;36.722;-4.462;2022-09-27T00:01:35;100769.88;;;19.43;44.23
60725;BME280;59881;36.722;-4.462;2022-09-27T00:04:00;100827.19;;;19.75;44.41
60725;BME280;59881;36.722;-4.462;2022-09-27T00:06:29;100853.16;;;19.82;44.36
60725;BME280;59881;36.722;-4.462;2022-09-27T00:08:56;100858.66;;;19.81;44.76
60725;BME280;59881;36.722;-4.462;2022-09-27T00:11:31;100446.19;;;17.22;44.96
60725;BME280;59881;36.722;-4.462;2022-09-27T00:13:58;100338.75;;;16.60;44.82
60725;BME280;59881;36.722;-4.462;2022-09-27T00:16:25;100741.22;;;19.01;44.93
60725;BME280;59881;36.722;-4.462;2022-09-27T00:18:51;100786.63;;;19.27;44.71
60725;BME280;59881;36.722;-4.462;2022-09-27T00:21:17;100478.00;;;17.24;44.90
60725;BME280;59881;36.722;-4.462;2022-09-27T00:23:43;100858.44;;;19.74;44.91
60725;BME280;59881;36.722;-4.462;2022-09-27T00:26:11;100855.75;;;19.74;45.36
60725;BME280;59881;36.722;-4.462;2022-09-27T00:28:37;100850.81;;;19.79;44.98
60725;BME280;59881;36.722;-4.462;2022-09-27T00:31:03;100514.91;;;17.72;45.26
60725;BME280;59881;36.722;-4.462;2022-09-27T00:33:29;100853.69;;;19.94;44.96
60725;BME280;59881;36.722;-4.462;2022-09-27T00:35:54;100389.59;;;17.02;44.71
60725;BME280;59881;36.722;-4.462;2022-09-27T00:38:27;100847.03;;;19.98;44.81
60725;BME280;59881;36.722;-4.462;2022-09-27T00:40:52;100856.75;;;19.99;44.74
60725;BME280;59881;36.722;-4.462;2022-09-27T00:43:20;100859.72;;;19.96;44.38
60725;BME280;59881;36.722;-4.462;2022-09-27T00:45:58;100863.41;;;19.95;44.52
60725;BME280;59881;36.722;-4.462;2022-09-27T00:48:28;100406.72;;;17.17;44.59
60725;BME280;59881;36.722;-4.462;2022-09-27T00:50:59;100848.34;;;19.86;44.25
60725;BME280;59881;36.722;-4.462;2022-09-27T00:53:42;100861.03;;;19.92;44.70
60725;BME280;59881;36.722;-4.462;2022-09-27T00:56:24;100870.06;;;19.91;44.77
60725;BME280;59881;36.722;-4.462;2022-09-27T01:01:55;100418.13;;;17.10;44.85
60725;BME280;59881;36.722;-4.462;2022-09-27T01:04:23;100867.56;;;19.90;44.91
60725;BME280;59881;36.722;-4.462;2022-09-27T01:06:50;100782.88;;;19.38;44.89
60725;BME280;59881;36.722;-4.462;2022-09-27T01:09:16;100834.16;;;19.68;44.63
60725;BME280;59881;36.722;-4.462;2022-09-27T01:14:44;100877.34;;;19.81;44.77
60725;BME280;59881;36.722;-4.462;2022-09-27T01:17:36;100880.00;;;19.73;44.80
60725;BME280;59881;36.722;-4.462;2022-09-27T01:25:50;100882.00;;;19.71;45.01
60725;BME280;59881;36.722;-4.462;2022-09-27T01:28:55;100872.13;;;19.71;45.05
60725;BME280;59881;36.722;-4.462;2022-09-27T01:31:39;100710.72;;;18.68;44.97
60725;BME280;59881;36.722;-4.462;2022-09-27T01:39:46;100876.53;;;19.62;45.36
60725;BME280;59881;36.722;-4.462;2022-09-27T01:42:22;100882.44;;;19.66;44.89
60725;BME280;59881;36.722;-4.462;2022-09-27T01:45:01;100845.03;;;19.48;44.51
60725;BME280;59881;36.722;-4.462;2022-09-27T01:47:36;100426.13;;;16.82;44.82
60725;BME280;59881;36.722;-4.462;2022-09-27T01:50:08;100530.31;;;16.87;44.81
60725;BME280;59881;36.722;-4.462;2022-09-27T01:52:59;100871.00;;;19.56;44.91
60725;BME280;59881;36.722;-4.462;2022-09-27T01:55:31;100871.00;;;19.56;44.83
60725;BME280;59881;36.722;-4.462;2022-09-27T01:58:35;100877.78;;;19.50;44.66
60725;BME280;59881;36.722;-4.462;2022-09-27T02:01:03;100624.56;;;17.95;44.63
60725;BME280;59881;36.722;-4.462;2022-09-27T02:03:35;100789.38;;;18.91;44.58
60725;BME280;59881;36.722;-4.462;2022-09-27T02:06:07;100466.94;;;17.01;44.42
60725;BME280;59881;36.722;-4.462;2022-09-27T02:11:10;100833.44;;;19.13;44.71
60725;BME280;59881;36.722;-4.462;2022-09-27T02:16:27;100930.56;;;19.12;44.81
60725;BME280;59881;36.722;-4.462;2022-09-27T02:24:15;100906.06;;;18.99;44.92
60725;BME280;59881;36.722;-4.462;2022-09-27T02:26:46;100750.69;;;18.41;44.92
60725;BME280;59881;36.722;-4.462;2022-09-27T02:29:17;100413.91;;;16.34;45.01
60725;BME280;59881;36.722;-4.462;2022-09-27T02:31:45;100831.91;;;18.93;44.79
60725;BME280;59881;36.722;-4.462;2022-09-27T02:34:18;100546.28;;;17.15;44.47
60725;BME280;59881;36.722;-4.462;2022-09-27T02:36:46;100823.16;;;18.83;44.52
60725;BME280;59881;36.722;-4.462;2022-09-27T02:39:13;100799.16;;;18.73;44.16
60725;BME280;59881;36.722;-4.462;2022-09-27T02:41:39;100944.81;;;19.03;43.96
60725;BME280;59881;36.722;-4.462;2022-09-27T02:44:09;100864.84;;;19.01;43.93
60725;BME280;59881;36.722;-4.462;2022-09-27T03:00:46;100833.06;;;18.90;43.02
60725;BME280;59881;36.722;-4.462;2022-09-27T03:03:19;100435.06;;;16.53;42.95
60725;BME280;59881;36.722;-4.462;2022-09-27T03:05:52;100851.91;;;19.07;42.94
60725;BME280;59881;36.722;-4.462;2022-09-27T03:08:19;100828.41;;;18.92;42.64
60725;BME280;59881;36.722;-4.462;2022-09-27T03:10:45;101000.75;;;19.05;43.09
60725;BME280;59881;36.722;-4.462;2022-09-27T03:13:11;100804.81;;;18.70;43.06
60725;BME280;59881;36.722;-4.462;2022-09-27T03:15:36;100849.84;;;19.00;42.89
60725;BME280;59881;36.722;-4.462;2022-09-27T03:18:02;100817.81;;;18.83;42.95
60725;BME280;59881;36.722;-4.462;2022-09-27T03:20:28;100813.78;;;18.78;43.09
60725;BME280;59881;36.722;-4.462;2022-09-27T03:22:54;100808.19;;;18.72;43.03
60725;BME280;59881;36.722;-4.462;2022-09-27T03:25:20;100829.78;;;18.78;43.00
60725;BME280;59881;36.722;-4.462;2022-09-27T03:27:46;100847.41;;;18.89;43.01
60725;BME280;59881;36.722;-4.462;2022-09-27T03:30:13;100805.78;;;18.51;43.16
60725;BME280;59881;36.722;-4.462;2022-09-27T03:32:45;100846.09;;;18.75;43.65
60725;BME280;59881;36.722;-4.462;2022-09-27T03:35:11;100855.38;;;18.71;44.18
60725;BME280;59881;36.722;-4.462;2022-09-27T03:37:38;100443.22;;;16.14;44.28
60725;BME280;59881;36.722;-4.462;2022-09-27T03:40:04;100822.69;;;18.41;44.55
60725;BME280;59881;36.722;-4.462;2022-09-27T03:42:30;100782.34;;;18.09;44.90
60725;BME280;59881;36.722;-4.462;2022-09-27T03:44:56;100398.56;;;15.71;44.95
60725;BME280;59881;36.722;-4.462;2022-09-27T03:47:21;100859.06;;;18.43;45.16
60725;BME280;59881;36.722;-4.462;2022-09-27T03:49:47;100856.94;;;17.71;45.45
60725;BME280;59881;36.722;-4.462;2022-09-27T03:52:13;100858.13;;;18.34;45.72
60725;BME280;59881;36.722;-4.462;2022-09-27T03:54:39;100379.69;;;15.45;45.91
60725;BME280;59881;36.722;-4.462;2022-09-27T03:57:05;100854.91;;;18.30;46.06
60725;BME280;59881;36.722;-4.462;2022-09-27T03:59:30;100429.81;;;15.67;46.47
60725;BME280;59881;36.722;-4.462;2022-09-27T04:01:56;100820.22;;;17.55;46.51
60725;BME280;59881;36.722;-4.462;2022-09-27T04:04:21;100846.97;;;18.20;46.45
60725;BME280;59881;36.722;-4.462;2022-09-27T04:06:48;100923.47;;;18.20;46.54
60725;BME280;59881;36.722;-4.462;2022-09-27T04:09:14;100756.84;;;17.59;46.36
60725;BME280;59881;36.722;-4.462;2022-09-27T04:11:39;100819.84;;;17.97;46.32
60725;BME280;59881;36.722;-4.462;2022-09-27T04:14:05;100769.16;;;17.70;46.34
60725;BME280;59881;36.722;-4.462;2022-09-27T04:16:33;100818.22;;;17.87;46.28
60725;BME280;59881;36.722;-4.462;2022-09-27T04:18:59;100838.50;;;17.97;46.28
60725;BME280;59881;36.722;-4.462;2022-09-27T04:21:26;100786.28;;;17.57;46.22
60725;BME280;59881;36.722;-4.462;2022-09-27T04:23:52;100402.31;;;15.20;46.08
60725;BME280;59881;36.722;-4.462;2022-09-27T04:26:18;100741.25;;;17.27;46.32
60725;BME280;59881;36.722;-4.462;2022-09-27T04:28:45;99973.38;;;12.59;46.30
60725;BME280;59881;36.722;-4.462;2022-09-27T04:31:11;100776.53;;;17.48;46.19
60725;BME280;59881;36.722;-4.462;2022-09-27T04:33:37;100791.63;;;17.57;46.09
60725;BME280;59881;36.722;-4.462;2022-09-27T04:36:02;100946.69;;;17.81;46.18
60725;BME280;59881;36.722;-4.462;2022-09-27T04:38:47;100824.94;;;17.81;45.98
60725;BME280;59881;36.722;-4.462;2022-09-27T04:41:13;100765.78;;;17.30;45.81
60725;BME280;59881;36.722;-4.462;2022-09-27T04:43:39;100848.91;;;17.91;45.89
60725;BME280;59881;36.722;-4.462;2022-09-27T04:46:05;100269.06;;;14.38;45.86
60725;BME280;59881;36.722;-4.462;2022-09-27T04:48:30;99975.56;;;12.54;45.75
60725;BME280;59881;36.722;-4.462;2022-09-27T04:50:58;100860.69;;;17.88;45.81
60725;BME280;59881;36.722;-4.462;2022-09-27T04:53:24;100828.75;;;17.69;45.51
60725;BME280;59881;36.722;-4.462;2022-09-27T04:55:52;100835.63;;;17.71;45.47
60725;BME280;59881;36.722;-4.462;2022-09-27T04:58:18;100797.13;;;17.46;45.52
60725;BME280;59881;36.722;-4.462;2022-09-27T05:00:46;100851.31;;;17.74;45.45
60725;BME280;59881;36.722;-4.462;2022-09-27T05:03:11;100845.44;;;17.71;45.47
60725;BME280;59881;36.722;-4.462;2022-09-27T05:05:38;100827.81;;;17.60;45.39
60725;BME280;59881;36.722;-4.462;2022-09-27T05:08:03;100877.25;;;17.82;45.24
60725;BME280;59881;36.722;-4.462;2022-09-27T05:10:29;100968.72;;;17.83;45.07
60725;BME280;59881;36.722;-4.462;2022-09-27T05:12:54;100440.47;;;15.28;45.04
60725;BME280;59881;36.722;-4.462;2022-09-27T05:15:20;100375.91;;;14.79;45.02
60725;BME280;59881;36.722;-4.462;2022-09-27T05:17:45;100823.22;;;17.33;45.12
60725;BME280;59881;36.722;-4.462;2022-09-27T05:20:11;100638.75;;;16.37;45.01
60725;BME280;59881;36.722;-4.462;2022-09-27T05:22:39;100693.13;;;16.71;45.04
60725;BME280;59881;36.722;-4.462;2022-09-27T05:25:04;100344.44;;;14.55;44.98
60725;BME280;59881;36.722;-4.462;2022-09-27T05:27:30;100787.91;;;17.31;44.95
60725;BME280;59881;36.722;-4.462;2022-09-27T05:29:56;100867.56;;;17.81;44.98
60725;BME280;59881;36.722;-4.462;2022-09-27T05:32:21;100808.63;;;17.47;44.70
60725;BME280;59881;36.722;-4.462;2022-09-27T05:34:47;100844.91;;;17.67;44.78
60725;BME280;59881;36.722;-4.462;2022-09-27T05:37:13;100880.88;;;17.81;44.71
60725;BME280;59881;36.722;-4.462;2022-09-27T05:39:39;100710.50;;;16.75;44.75
60725;BME280;59881;36.722;-4.462;2022-09-27T05:42:04;100878.53;;;17.78;44.69
60725;BME280;59881;36.722;-4.462;2022-09-27T05:44:32;100876.00;;;17.76;44.64
60725;BME280;59881;36.722;-4.462;2022-09-27T05:47:00;100028.22;;;12.46;44.63
60725;BME280;59881;36.722;-4.462;2022-09-27T05:49:30;100881.06;;;17.70;44.80
60725;BME280;59881;36.722;-4.462;2022-09-27T05:51:56;100879.09;;;17.72;44.62
60725;BME280;59881;36.722;-4.462;2022-09-27T05:54:22;100855.56;;;17.57;44.54
60725;BME280;59881;36.722;-4.462;2022-09-27T05:56:47;100411.50;;;14.86;44.73
60725;BME280;59881;36.722;-4.462;2022-09-27T05:59:13;100887.22;;;17.70;44.57
60725;BME280;59881;36.722;-4.462;2022-09-27T06:01:38;100900.94;;;17.75;44.35
60725;BME280;59881;36.722;-4.462;2022-09-27T06:04:04;100883.69;;;17.79;44.28
60725;BME280;59881;36.722;-4.462;2022-09-27T06:06:30;100695.69;;;16.63;44.32
60725;BME280;59881;36.722;-4.462;2022-09-27T06:08:58;100428.00;;;15.00;44.15
60725;BME280;59881;36.722;-4.462;2022-09-27T06:11:25;100850.22;;;17.57;44.19
60725;BME280;59881;36.722;-4.462;2022-09-27T06:13:51;100896.03;;;17.90;44.10
60725;BME280;59881;36.722;-4.462;2022-09-27T06:16:17;100870.53;;;17.78;43.80
60725;BME280;59881;36.722;-4.462;2022-09-27T06:18:43;100892.75;;;18.44;43.27
60725;BME280;59881;36.722;-4.462;2022-09-27T06:21:08;100423.78;;;16.04;42.43
60725;BME280;59881;36.722;-4.462;2022-09-27T06:23:34;100890.41;;;19.40;41.53
60725;BME280;59881;36.722;-4.462;2022-09-27T06:26:04;100330.50;;;16.63;40.46
60725;BME280;59881;36.722;-4.462;2022-09-27T06:28:31;100825.75;;;20.23;39.10
60725;BME280;59881;36.722;-4.462;2022-09-27T06:30:59;100546.38;;;19.09;37.84
60725;BME280;59881;36.722;-4.462;2022-09-27T06:33:26;100857.91;;;21.64;36.48
60725;BME280;59881;36.722;-4.462;2022-09-27T06:35:54;100882.88;;;22.37;35.42
60725;BME280;59881;36.722;-4.462;2022-09-27T06:38:21;100680.72;;;21.82;34.42
60725;BME280;59881;36.722;-4.462;2022-09-27T06:40:47;100883.56;;;23.77;33.29
60725;BME280;59881;36.722;-4.462;2022-09-27T06:43:15;100845.31;;;24.26;32.24
60725;BME280;59881;36.722;-4.462;2022-09-27T06:45:41;100858.28;;;24.89;31.54
60725;BME280;59881;36.722;-4.462;2022-09-27T06:48:08;100889.31;;;26.06;30.54
60725;BME280;59881;36.722;-4.462;2022-09-27T06:50:38;100879.66;;;26.66;29.26
60725;BME280;59881;36.722;-4.462;2022-09-27T06:53:06;100875.97;;;27.14;28.11
60725;BME280;59881;36.722;-4.462;2022-09-27T06:55:32;100910.16;;;27.41;27.49
60725;BME280;59881;36.722;-4.462;2022-09-27T06:57:59;100873.47;;;28.05;26.84
60725;BME280;59881;36.722;-4.462;2022-09-27T07:00:44;100827.50;;;28.31;26.01
60725;BME280;59881;36.722;-4.462;2022-09-27T07:03:13;100868.19;;;29.01;25.44
60725;BME280;59881;36.722;-4.462;2022-09-27T07:05:39;100807.31;;;28.97;24.64
60725;BME280;59881;36.722;-4.462;2022-09-27T07:08:09;100893.34;;;29.72;24.16
60725;BME280;59881;36.722;-4.462;2022-09-27T07:10:37;100887.03;;;30.15;23.15
60725;BME280;59881;36.722;-4.462;2022-09-27T07:13:07;100857.97;;;30.34;22.66
60725;BME280;59881;36.722;-4.462;2022-09-27T07:15:35;100872.09;;;31.14;22.54
60725;BME280;59881;36.722;-4.462;2022-09-27T07:18:02;100878.16;;;31.87;21.30
60725;BME280;59881;36.722;-4.462;2022-09-27T07:20:28;100951.19;;;32.49;20.53
60725;BME280;59881;36.722;-4.462;2022-09-27T07:22:54;100884.34;;;33.21;20.01
60725;BME280;59881;36.722;-4.462;2022-09-27T07:25:20;100866.91;;;33.78;19.37
60725;BME280;59881;36.722;-4.462;2022-09-27T07:27:45;100855.16;;;34.16;18.73
60725;BME280;59881;36.722;-4.462;2022-09-27T07:30:12;100925.41;;;34.87;18.27
60725;BME280;59881;36.722;-4.462;2022-09-27T07:32:38;100880.16;;;35.39;17.59
60725;BME280;59881;36.722;-4.462;2022-09-27T07:35:06;100895.66;;;35.60;17.62
60725;BME280;59881;36.722;-4.462;2022-09-27T07:37:33;100564.13;;;33.70;17.73
60725;BME280;59881;36.722;-4.462;2022-09-27T07:40:00;100898.63;;;35.96;16.76
60725;BME280;59881;36.722;-4.462;2022-09-27T07:42:26;100896.00;;;36.17;16.72
60725;BME280;59881;36.722;-4.462;2022-09-27T07:44:55;100659.78;;;35.09;16.46
60725;BME280;59881;36.722;-4.462;2022-09-27T07:47:22;100880.28;;;37.01;15.79
60725;BME280;59881;36.722;-4.462;2022-09-27T07:49:49;100873.13;;;37.41;15.98
60725;BME280;59881;36.722;-4.462;2022-09-27T07:52:17;100588.31;;;36.30;15.07
60725;BME280;59881;36.722;-4.462;2022-09-27T07:54:44;100872.44;;;38.60;14.84
60725;BME280;59881;36.722;-4.462;2022-09-27T07:57:09;100898.84;;;39.06;14.50
60725;BME280;59881;36.722;-4.462;2022-09-27T07:59:35;100880.19;;;39.27;14.11
60725;BME280;59881;36.722;-4.462;2022-09-27T08:02:01;100645.16;;;38.20;13.90
60725;BME280;59881;36.722;-4.462;2022-09-27T08:04:27;100795.31;;;39.77;13.42
60725;BME280;59881;36.722;-4.462;2022-09-27T08:06:53;100882.50;;;40.78;12.77
60725;BME280;59881;36.722;-4.462;2022-09-27T08:09:19;100628.53;;;39.75;13.03
60725;BME280;59881;36.722;-4.462;2022-09-27T08:11:45;100912.69;;;42.01;12.12
60725;BME280;59881;36.722;-4.462;2022-09-27T08:14:10;100917.06;;;42.66;12.28
60725;BME280;59881;36.722;-4.462;2022-09-27T08:16:36;100639.75;;;41.46;11.42
60725;BME280;59881;36.722;-4.462;2022-09-27T08:19:02;100492.25;;;41.05;11.65
60725;BME280;59881;36.722;-4.462;2022-09-27T08:21:27;100914.84;;;44.15;11.29
60725;BME280;59881;36.722;-4.462;2022-09-27T08:23:55;100940.19;;;44.40;11.07
60725;BME280;59881;36.722;-4.462;2022-09-27T08:26:21;100436.91;;;41.95;10.72
60725;BME280;59881;36.722;-4.462;2022-09-27T08:28:47;100930.06;;;45.22;9.78
60725;BME280;59881;36.722;-4.462;2022-09-27T08:31:13;100933.56;;;45.58;10.03
60725;BME280;59881;36.722;-4.462;2022-09-27T08:33:39;100902.50;;;45.85;9.54
60725;BME280;59881;36.722;-4.462;2022-09-27T08:36:10;100933.97;;;46.37;9.75
60725;BME280;59881;36.722;-4.462;2022-09-27T08:38:36;100933.72;;;46.93;9.68
60725;BME280;59881;36.722;-4.462;2022-09-27T08:41:21;100835.56;;;46.99;9.71
60725;BME280;59881;36.722;-4.462;2022-09-27T08:46:56;100851.09;;;48.36;8.84
60725;BME280;59881;36.722;-4.462;2022-09-27T08:52:04;100917.78;;;49.85;8.41
60725;BME280;59881;36.722;-4.462;2022-09-27T08:54:34;100692.75;;;47.55;8.16
60725;BME280;59881;36.722;-4.462;2022-09-27T08:57:03;100947.09;;;48.96;9.02
60725;BME280;59881;36.722;-4.462;2022-09-27T08:59:34;100954.91;;;49.35;9.10
60725;BME280;59881;36.722;-4.462;2022-09-27T09:02:03;101003.41;;;49.26;9.35
60725;BME280;59881;36.722;-4.462;2022-09-27T09:04:36;100715.03;;;48.08;8.04
60725;BME280;59881;36.722;-4.462;2022-09-27T09:12:47;100955.41;;;50.20;6.97
60725;BME280;59881;36.722;-4.462;2022-09-27T09:20:52;100965.28;;;52.03;6.69
60725;BME280;59881;36.722;-4.462;2022-09-27T09:23:30;100958.31;;;51.67;6.75
60725;BME280;59881;36.722;-4.462;2022-09-27T09:34:13;100956.88;;;53.83;6.12
60725;BME280;59881;36.722;-4.462;2022-09-27T09:36:51;100953.03;;;54.13;5.57
60725;BME280;59881;36.722;-4.462;2022-09-27T09:39:29;100961.25;;;54.47;5.35
60725;BME280;59881;36.722;-4.462;2022-09-27T09:47:00;100760.16;;;52.74;5.11
60725;BME280;59881;36.722;-4.462;2022-09-27T09:49:27;100959.31;;;53.88;5.47
60725;BME280;59881;36.722;-4.462;2022-09-27T09:52:21;100953.69;;;54.72;5.35
60725;BME280;59881;36.722;-4.462;2022-09-27T09:54:49;100953.03;;;55.18;5.21
60725;BME280;59881;36.722;-4.462;2022-09-27T09:57:40;100964.69;;;55.60;4.87
60725;BME280;59881;36.722;-4.462;2022-09-27T10:00:16;100955.81;;;55.90;5.01
60725;BME280;59881;36.722;-4.462;2022-09-27T10:02:46;100949.31;;;55.97;4.37
60725;BME280;59881;36.722;-4.462;2022-09-27T10:05:24;100901.75;;;55.63;4.60
60725;BME280;59881;36.722;-4.462;2022-09-27T10:07:52;100990.09;;;55.92;4.94
60725;BME280;59881;36.722;-4.462;2022-09-27T10:10:19;100950.88;;;56.27;4.61
60725;BME280;59881;36.722;-4.462;2022-09-27T10:12:46;100905.75;;;55.80;5.12
60725;BME280;59881;36.722;-4.462;2022-09-27T10:15:19;100981.25;;;55.26;4.82
60725;BME280;59881;36.722;-4.462;2022-09-27T10:17:48;100960.94;;;54.66;4.82
60725;BME280;59881;36.722;-4.462;2022-09-27T10:22:48;100707.00;;;53.10;5.00
60725;BME280;59881;36.722;-4.462;2022-09-27T10:25:18;100912.50;;;54.43;5.12
60725;BME280;59881;36.722;-4.462;2022-09-27T10:27:50;100957.78;;;54.93;5.34
60725;BME280;59881;36.722;-4.462;2022-09-27T10:30:21;100943.34;;;55.16;4.68
60725;BME280;59881;36.722;-4.462;2022-09-27T10:32:51;100946.94;;;55.13;5.16
60725;BME280;59881;36.722;-4.462;2022-09-27T10:37:55;100930.72;;;54.70;5.03
60725;BME280;59881;36.722;-4.462;2022-09-27T10:40:36;100908.63;;;51.44;6.75
60725;BME280;59881;36.722;-4.462;2022-09-27T10:43:01;100949.91;;;45.68;9.77
60725;BME280;59881;36.722;-4.462;2022-09-27T10:45:29;100718.44;;;39.03;12.29
60725;BME280;59881;36.722;-4.462;2022-09-27T10:47:56;100482.94;;;33.92;14.80
60725;BME280;59881;36.722;-4.462;2022-09-27T10:50:29;100955.78;;;34.86;16.40
60725;BME280;59881;36.722;-4.462;2022-09-27T10:53:04;100958.41;;;33.58;17.38
60725;BME280;59881;36.722;-4.462;2022-09-27T10:55:33;100957.50;;;32.78;17.89
60725;BME280;59881;36.722;-4.462;2022-09-27T10:58:00;100952.06;;;32.26;18.74
60725;BME280;59881;36.722;-4.462;2022-09-27T11:00:35;100954.06;;;31.84;19.32
60725;BME280;59881;36.722;-4.462;2022-09-27T11:03:11;100882.16;;;31.14;19.74
60725;BME280;59881;36.722;-4.462;2022-09-27T11:05:38;100563.25;;;28.97;19.63
60725;BME280;59881;36.722;-4.462;2022-09-27T11:08:29;100948.44;;;31.20;19.80
60725;BME280;59881;36.722;-4.462;2022-09-27T11:13:39;100400.72;;;27.48;20.40
60725;BME280;59881;36.722;-4.462;2022-09-27T11:40:31;100940.41;;;29.34;21.83
60725;BME280;59881;36.722;-4.462;2022-09-27T11:54:09;100928.44;;;29.16;21.46
60725;BME280;59881;36.722;-4.462;2022-09-27T12:03:14;100437.09;;;25.90;21.84
60725;BME280;59881;36.722;-4.462;2022-09-27T12:11:18;100910.53;;;29.02;21.78
60725;BME280;59881;36.722;-4.462;2022-09-27T12:14:02;100213.75;;;23.64;22.46
60725;BME280;59881;36.722;-4.462;2022-09-27T12:16:31;100905.03;;;28.83;22.04
60725;BME280;59881;36.722;-4.462;2022-09-27T12:18:58;100723.47;;;27.48;22.13
60725;BME280;59881;36.722;-4.462;2022-09-27T12:21:29;100941.03;;;28.45;22.29
60725;BME280;59881;36.722;-4.462;2022-09-27T12:23:56;100902.69;;;28.48;22.46
60725;BME280;59881;36.722;-4.462;2022-09-27T12:29:00;100708.81;;;27.69;22.35
60725;BME280;59881;36.722;-4.462;2022-09-27T12:31:36;100736.44;;;27.91;22.55
60725;BME280;59881;36.722;-4.462;2022-09-27T12:34:25;100880.13;;;28.93;22.24
60725;BME280;59881;36.722;-4.462;2022-09-27T12:37:09;100972.81;;;28.83;21.84
60725;BME280;59881;36.722;-4.462;2022-09-27T12:39:59;100866.84;;;28.85;21.95
60725;BME280;59881;36.722;-4.462;2022-09-27T12:42:35;100536.06;;;26.69;21.51
60725;BME280;59881;36.722;-4.462;2022-09-27T12:45:04;100873.00;;;28.99;21.90
60725;BME280;59881;36.722;-4.462;2022-09-27T12:52:53;100015.97;;;23.48;22.34
60725;BME280;59881;36.722;-4.462;2022-09-27T12:55:39;100847.16;;;28.96;22.05
60725;BME280;59881;36.722;-4.462;2022-09-27T13:00:58;100867.13;;;29.08;21.84
60725;BME280;59881;36.722;-4.462;2022-09-27T13:03:42;100929.28;;;29.10;21.57
60725;BME280;59881;36.722;-4.462;2022-09-27T13:14:24;100441.09;;;26.66;21.82
60725;BME280;59881;36.722;-4.462;2022-09-27T13:16:51;100890.94;;;29.00;21.70
60725;BME280;59881;36.722;-4.462;2022-09-27T13:19:38;100825.03;;;28.99;21.91
60725;BME280;59881;36.722;-4.462;2022-09-27T13:24:52;100332.31;;;25.27;22.67
60725;BME280;59881;36.722;-4.462;2022-09-27T13:29:47;100110.31;;;24.68;22.36
60725;BME280;59881;36.722;-4.462;2022-09-27T13:32:16;100803.72;;;29.03;22.45
60725;BME280;59881;36.722;-4.462;2022-09-27T13:40:26;100677.81;;;28.42;22.59
60725;BME280;59881;36.722;-4.462;2022-09-27T13:46:01;100789.00;;;29.17;22.74
60725;BME280;59881;36.722;-4.462;2022-09-27T13:53:56;100782.25;;;29.26;22.87
60725;BME280;59881;36.722;-4.462;2022-09-27T13:59:36;100795.75;;;29.33;23.23
60725;BME280;59881;36.722;-4.462;2022-09-27T14:02:26;100678.44;;;28.69;22.69
60725;BME280;59881;36.722;-4.462;2022-09-27T14:04:55;100783.47;;;29.30;22.54
60725;BME280;59881;36.722;-4.462;2022-09-27T14:07:28;100326.63;;;26.53;22.77
60725;BME280;59881;36.722;-4.462;2022-09-27T14:09:59;100889.34;;;29.24;22.74
60725;BME280;59881;36.722;-4.462;2022-09-27T14:12:36;100809.22;;;29.21;22.63
60725;BME280;59881;36.722;-4.462;2022-09-27T14:15:04;100443.25;;;26.95;22.62
60725;BME280;59881;36.722;-4.462;2022-09-27T14:17:32;100700.34;;;28.36;22.67
60725;BME280;59881;36.722;-4.462;2022-09-27T14:19:58;100769.22;;;29.17;22.51
60725;BME280;59881;36.722;-4.462;2022-09-27T14:22:24;100086.72;;;24.56;22.98
60725;BME280;59881;36.722;-4.462;2022-09-27T14:24:51;100771.19;;;29.28;22.54
60725;BME280;59881;36.722;-4.462;2022-09-27T14:27:21;100777.28;;;29.23;22.45
60725;BME280;59881;36.722;-4.462;2022-09-27T14:29:50;100794.66;;;29.16;22.51
60725;BME280;59881;36.722;-4.462;2022-09-27T14:32:25;100769.88;;;29.12;22.44
60725;BME280;59881;36.722;-4.462;2022-09-27T14:35:06;100759.44;;;29.09;22.96
60725;BME280;59881;36.722;-4.462;2022-09-27T14:37:56;100778.44;;;29.09;22.87
60725;BME280;59881;36.722;-4.462;2022-09-27T14:40:23;100546.56;;;27.49;22.83
60725;BME280;59881;36.722;-4.462;2022-09-27T14:42:57;100234.50;;;25.85;23.04
60725;BME280;59881;36.722;-4.462;2022-09-27T14:45:37;100758.22;;;29.05;22.68
60725;BME280;59881;36.722;-4.462;2022-09-27T14:50:56;100762.44;;;29.01;22.99
60725;BME280;59881;36.722;-4.462;2022-09-27T14:53:27;100564.81;;;27.60;23.21
60725;BME280;59881;36.722;-4.462;2022-09-27T14:55:53;100818.38;;;28.95;22.97
60725;BME280;59881;36.722;-4.462;2022-09-27T14:58:20;100775.81;;;28.96;23.50
60725;BME280;59881;36.722;-4.462;2022-09-27T15:00:48;100766.25;;;28.93;23.82
60725;BME280;59881;36.722;-4.462;2022-09-27T15:03:21;100746.72;;;28.84;23.76
60725;BME280;59881;36.722;-4.462;2022-09-27T15:05:49;100750.50;;;28.83;23.69
60725;BME280;59881;36.722;-4.462;2022-09-27T15:08:16;100537.31;;;27.32;24.00
60725;BME280;59881;36.722;-4.462;2022-09-27T15:10:43;100600.72;;;27.88;23.81
60725;BME280;59881;36.722;-4.462;2022-09-27T15:13:15;100264.81;;;25.80;23.75
60725;BME280;59881;36.722;-4.462;2022-09-27T15:15:43;100681.78;;;28.39;23.74
60725;BME280;59881;36.722;-4.462;2022-09-27T15:20:56;100263.16;;;25.79;23.89
60725;BME280;59881;36.722;-4.462;2022-09-27T15:23:37;100680.41;;;28.30;23.75
60725;BME280;59881;36.722;-4.462;2022-09-27T15:26:07;100749.97;;;28.68;24.06
60725;BME280;59881;36.722;-4.462;2022-09-27T15:28:35;100663.94;;;28.00;24.44
60725;BME280;59881;36.722;-4.462;2022-09-27T15:31:04;100507.59;;;27.18;24.53
60725;BME280;59881;36.722;-4.462;2022-09-27T15:33:32;100638.19;;;27.45;24.65
60725;BME280;59881;36.722;-4.462;2022-09-27T15:36:02;100754.38;;;28.62;24.67
60725;BME280;59881;36.722;-4.462;2022-09-27T15:38:44;100397.97;;;26.26;24.80
60725;BME280;59881;36.722;-4.462;2022-09-27T15:41:14;100358.81;;;26.03;24.94
60725;BME280;59881;36.722;-4.462;2022-09-27T15:43:51;100760.13;;;28.47;25.00
60725;BME280;59881;36.722;-4.462;2022-09-27T15:46:35;100759.09;;;28.42;25.30
60725;BME280;59881;36.722;-4.462;2022-09-27T15:51:43;100747.25;;;28.36;25.81